sensor_id;sensor_type;location;lat;lon;timestamp;temperature;humidity
1614;DHT22;800;48.824;9.346;2024-01-10T00:01:18;2.80;46.70
1614;DHT22;800;48.824;9.346;2024-01-10T00:03:43;2.80;46.90
1614;DHT22;800;48.824;9.346;2024-01-10T00:06:10;2.80;47.00
1614;DHT22;800;48.824;9.346;2024-01-10T00:08:36;2.80;47.10
1614;DHT22;800;48.824;9.346;2024-01-10T00:11:01;2.80;47.20
1614;DHT22;800;48.824;9.346;2024-01-10T00:13:27;2.80;47.30
1614;DHT22;800;48.824;9.346;2024-01-10T00:15:53;2.70;47.40
1614;DHT22;800;48.824;9.346;2024-01-10T00:18:21;2.70;47.50
1614;DHT22;800;48.824;9.346;2024-01-10T00:20:46;2.70;47.50
1614;DHT22;800;48.824;9.346;2024-01-10T00:23:12;2.70;47.60
1614;DHT22;800;48.824;9.346;2024-01-10T00:25:38;2.70;47.60
1614;DHT22;800;48.824;9.346;2024-01-10T00:28:04;2.70;47.60
1614;DHT22;800;48.824;9.346;2024-01-10T00:30:30;2.70;47.60
1614;DHT22;800;48.824;9.346;2024-01-10T00:32:55;2.70;47.60
1614;DHT22;800;48.824;9.346;2024-01-10T00:35:21;2.70;47.60
1614;DHT22;800;48.824;9.346;2024-01-10T00:37:46;2.70;47.70
1614;DHT22;800;48.824;9.346;2024-01-10T00:40:12;2.70;47.70
1614;DHT22;800;48.824;9.346;2024-01-10T00:42:37;2.70;47.60
1614;DHT22;800;48.824;9.346;2024-01-10T00:45:03;2.70;47.60
1614;DHT22;800;48.824;9.346;2024-01-10T00:47:29;2.70;47.60
1614;DHT22;800;48.824;9.346;2024-01-10T00:49:55;2.70;47.40
1614;DHT22;800;48.824;9.346;2024-01-10T00:52:20;2.70;47.30
1614;DHT22;800;48.824;9.346;2024-01-10T00:54:46;2.70;47.10
1614;DHT22;800;48.824;9.346;2024-01-10T00:57:12;2.70;47.00
1614;DHT22;800;48.824;9.346;2024-01-10T00:59:37;2.80;46.90
1614;DHT22;800;48.824;9.346;2024-01-10T01:02:03;2.70;46.80
1614;DHT22;800;48.824;9.346;2024-01-10T01:04:28;2.80;46.90
1614;DHT22;800;48.824;9.346;2024-01-10T01:06:54;2.80;46.70
1614;DHT22;800;48.824;9.346;2024-01-10T01:09:19;2.80;46.70
1614;DHT22;800;48.824;9.346;2024-01-10T01:11:45;2.80;46.70
1614;DHT22;800;48.824;9.346;2024-01-10T01:14:11;2.60;46.60
1614;DHT22;800;48.824;9.346;2024-01-10T01:16:36;2.60;46.90
1614;DHT22;800;48.824;9.346;2024-01-10T01:19:02;2.60;47.20
1614;DHT22;800;48.824;9.346;2024-01-10T01:21:27;2.60;47.40
1614;DHT22;800;48.824;9.346;2024-01-10T01:23:53;2.60;48.00
1614;DHT22;800;48.824;9.346;2024-01-10T01:26:19;2.60;47.40
1614;DHT22;800;48.824;9.346;2024-01-10T01:28:45;2.70;47.50
1614;DHT22;800;48.824;9.346;2024-01-10T01:31:10;2.70;47.60
1614;DHT22;800;48.824;9.346;2024-01-10T01:33:36;2.70;47.60
1614;DHT22;800;48.824;9.346;2024-01-10T01:36:01;2.70;47.60
1614;DHT22;800;48.824;9.346;2024-01-10T01:38:27;2.60;47.60
1614;DHT22;800;48.824;9.346;2024-01-10T01:40:53;2.70;47.80
1614;DHT22;800;48.824;9.346;2024-01-10T01:45:46;2.70;47.70
1614;DHT22;800;48.824;9.346;2024-01-10T01:48:11;2.70;47.70
1614;DHT22;800;48.824;9.346;2024-01-10T01:50:37;2.70;47.70
1614;DHT22;800;48.824;9.346;2024-01-10T01:53:03;2.70;47.90
1614;DHT22;800;48.824;9.346;2024-01-10T01:55:29;2.70;47.90
1614;DHT22;800;48.824;9.346;2024-01-10T01:57:55;2.70;47.90
1614;DHT22;800;48.824;9.346;2024-01-10T02:00:20;2.70;47.80
1614;DHT22;800;48.824;9.346;2024-01-10T02:02:47;2.80;47.70
1614;DHT22;800;48.824;9.346;2024-01-10T02:05:14;2.80;47.60
1614;DHT22;800;48.824;9.346;2024-01-10T02:07:40;2.80;47.30
1614;DHT22;800;48.824;9.346;2024-01-10T02:10:06;2.80;47.20
1614;DHT22;800;48.824;9.346;2024-01-10T02:12:32;2.80;47.20
1614;DHT22;800;48.824;9.346;2024-01-10T02:14:58;2.90;47.30
1614;DHT22;800;48.824;9.346;2024-01-10T02:17:24;2.90;47.10
1614;DHT22;800;48.824;9.346;2024-01-10T02:19:50;2.90;46.80
1614;DHT22;800;48.824;9.346;2024-01-10T02:22:15;2.90;46.70
1614;DHT22;800;48.824;9.346;2024-01-10T02:24:41;2.90;46.70
1614;DHT22;800;48.824;9.346;2024-01-10T02:27:07;2.90;47.30
1614;DHT22;800;48.824;9.346;2024-01-10T02:29:34;2.90;46.70
1614;DHT22;800;48.824;9.346;2024-01-10T02:31:59;2.90;46.60
1614;DHT22;800;48.824;9.346;2024-01-10T02:34:25;3.00;46.70
1614;DHT22;800;48.824;9.346;2024-01-10T02:36:50;3.00;46.60
1614;DHT22;800;48.824;9.346;2024-01-10T02:39:16;3.00;46.50
1614;DHT22;800;48.824;9.346;2024-01-10T02:41:41;3.00;46.60
1614;DHT22;800;48.824;9.346;2024-01-10T02:44:07;3.00;46.50
1614;DHT22;800;48.824;9.346;2024-01-10T02:46:32;3.00;46.70
1614;DHT22;800;48.824;9.346;2024-01-10T02:48:58;3.00;46.50
1614;DHT22;800;48.824;9.346;2024-01-10T02:51:26;3.00;46.40
1614;DHT22;800;48.824;9.346;2024-01-10T02:53:52;3.00;46.50
1614;DHT22;800;48.824;9.346;2024-01-10T02:56:17;3.00;46.50
1614;DHT22;800;48.824;9.346;2024-01-10T02:58:43;3.00;46.30
1614;DHT22;800;48.824;9.346;2024-01-10T03:01:08;3.00;46.20
1614;DHT22;800;48.824;9.346;2024-01-10T03:03:34;3.00;46.10
1614;DHT22;800;48.824;9.346;2024-01-10T03:06:00;3.00;45.90
1614;DHT22;800;48.824;9.346;2024-01-10T03:08:25;3.00;45.90
1614;DHT22;800;48.824;9.346;2024-01-10T03:10:51;3.00;45.90
1614;DHT22;800;48.824;9.346;2024-01-10T03:13:16;3.00;45.80
1614;DHT22;800;48.824;9.346;2024-01-10T03:15:42;2.90;45.40
1614;DHT22;800;48.824;9.346;2024-01-10T03:18:07;2.90;45.50
1614;DHT22;800;48.824;9.346;2024-01-10T03:20:33;2.90;45.30
1614;DHT22;800;48.824;9.346;2024-01-10T03:22:59;2.90;45.20
1614;DHT22;800;48.824;9.346;2024-01-10T03:25:24;2.90;45.20
1614;DHT22;800;48.824;9.346;2024-01-10T03:27:50;2.80;45.10
1614;DHT22;800;48.824;9.346;2024-01-10T03:30:15;2.80;45.10
1614;DHT22;800;48.824;9.346;2024-01-10T03:32:43;2.90;45.20
1614;DHT22;800;48.824;9.346;2024-01-10T03:35:09;2.90;45.20
1614;DHT22;800;48.824;9.346;2024-01-10T03:37:34;2.90;45.20
1614;DHT22;800;48.824;9.346;2024-01-10T03:40:00;2.90;45.30
1614;DHT22;800;48.824;9.346;2024-01-10T03:42:26;2.90;45.60
1614;DHT22;800;48.824;9.346;2024-01-10T03:44:51;2.90;45.70
1614;DHT22;800;48.824;9.346;2024-01-10T03:47:17;2.90;45.80
1614;DHT22;800;48.824;9.346;2024-01-10T03:49:42;3.00;45.90
1614;DHT22;800;48.824;9.346;2024-01-10T03:52:08;3.00;45.90
1614;DHT22;800;48.824;9.346;2024-01-10T03:54:33;3.00;46.00
1614;DHT22;800;48.824;9.346;2024-01-10T03:56:59;3.00;45.90
1614;DHT22;800;48.824;9.346;2024-01-10T03:59:24;3.10;46.00
1614;DHT22;800;48.824;9.346;2024-01-10T04:01:50;3.10;45.80
1614;DHT22;800;48.824;9.346;2024-01-10T04:04:16;3.10;45.70
1614;DHT22;800;48.824;9.346;2024-01-10T04:06:41;3.10;45.80
1614;DHT22;800;48.824;9.346;2024-01-10T04:09:07;3.10;45.90
1614;DHT22;800;48.824;9.346;2024-01-10T04:11:34;3.00;46.10
1614;DHT22;800;48.824;9.346;2024-01-10T04:14:00;2.70;46.10
1614;DHT22;800;48.824;9.346;2024-01-10T04:16:26;2.40;46.40
1614;DHT22;800;48.824;9.346;2024-01-10T04:18:52;2.50;47.00
1614;DHT22;800;48.824;9.346;2024-01-10T04:21:18;2.60;46.90
1614;DHT22;800;48.824;9.346;2024-01-10T04:23:43;2.70;46.60
1614;DHT22;800;48.824;9.346;2024-01-10T04:26:09;2.90;46.30
1614;DHT22;800;48.824;9.346;2024-01-10T04:28:35;2.80;46.10
1614;DHT22;800;48.824;9.346;2024-01-10T04:31:00;2.80;45.80
1614;DHT22;800;48.824;9.346;2024-01-10T04:33:26;2.90;45.90
1614;DHT22;800;48.824;9.346;2024-01-10T04:35:51;2.90;45.70
1614;DHT22;800;48.824;9.346;2024-01-10T04:38:17;2.80;45.50
1614;DHT22;800;48.824;9.346;2024-01-10T04:40:42;2.80;45.60
1614;DHT22;800;48.824;9.346;2024-01-10T04:43:08;2.80;45.50
1614;DHT22;800;48.824;9.346;2024-01-10T04:45:33;2.80;45.30
1614;DHT22;800;48.824;9.346;2024-01-10T04:47:59;2.70;45.40
1614;DHT22;800;48.824;9.346;2024-01-10T04:50:25;2.70;45.50
1614;DHT22;800;48.824;9.346;2024-01-10T04:52:50;2.80;45.40
1614;DHT22;800;48.824;9.346;2024-01-10T04:55:16;2.90;45.20
1614;DHT22;800;48.824;9.346;2024-01-10T04:57:41;2.90;45.40
1614;DHT22;800;48.824;9.346;2024-01-10T05:00:07;3.00;45.50
1614;DHT22;800;48.824;9.346;2024-01-10T05:02:33;3.00;45.20
1614;DHT22;800;48.824;9.346;2024-01-10T05:04:58;3.10;45.30
1614;DHT22;800;48.824;9.346;2024-01-10T05:07:24;3.10;45.40
1614;DHT22;800;48.824;9.346;2024-01-10T05:09:49;3.10;45.30
1614;DHT22;800;48.824;9.346;2024-01-10T05:12:15;3.10;45.30
1614;DHT22;800;48.824;9.346;2024-01-10T05:14:41;3.10;45.20
1614;DHT22;800;48.824;9.346;2024-01-10T05:17:06;3.20;45.30
1614;DHT22;800;48.824;9.346;2024-01-10T05:19:32;3.20;45.30
1614;DHT22;800;48.824;9.346;2024-01-10T05:21:57;3.20;45.30
1614;DHT22;800;48.824;9.346;2024-01-10T05:24:23;3.20;45.40
1614;DHT22;800;48.824;9.346;2024-01-10T05:26:49;3.20;45.20
1614;DHT22;800;48.824;9.346;2024-01-10T05:29:16;3.30;45.20
1614;DHT22;800;48.824;9.346;2024-01-10T05:31:44;3.40;45.10
1614;DHT22;800;48.824;9.346;2024-01-10T05:34:09;3.40;44.90
1614;DHT22;800;48.824;9.346;2024-01-10T05:36:35;3.20;44.80
1614;DHT22;800;48.824;9.346;2024-01-10T05:39:00;3.20;45.10
1614;DHT22;800;48.824;9.346;2024-01-10T05:41:26;3.00;45.00
1614;DHT22;800;48.824;9.346;2024-01-10T05:43:52;2.80;45.20
1614;DHT22;800;48.824;9.346;2024-01-10T05:46:18;2.80;45.70
1614;DHT22;800;48.824;9.346;2024-01-10T05:48:45;2.90;45.70
1614;DHT22;800;48.824;9.346;2024-01-10T05:51:11;3.00;45.70
1614;DHT22;800;48.824;9.346;2024-01-10T05:53:37;2.80;45.50
1614;DHT22;800;48.824;9.346;2024-01-10T05:56:05;2.90;45.50
1614;DHT22;800;48.824;9.346;2024-01-10T05:58:30;2.80;45.50
1614;DHT22;800;48.824;9.346;2024-01-10T06:00:56;2.80;45.60
1614;DHT22;800;48.824;9.346;2024-01-10T06:03:21;2.60;45.90
1614;DHT22;800;48.824;9.346;2024-01-10T06:05:47;2.70;46.10
1614;DHT22;800;48.824;9.346;2024-01-10T06:08:13;2.90;45.90
1614;DHT22;800;48.824;9.346;2024-01-10T06:10:39;3.00;45.70
1614;DHT22;800;48.824;9.346;2024-01-10T06:13:05;3.00;45.50
1614;DHT22;800;48.824;9.346;2024-01-10T06:15:30;3.10;45.30
1614;DHT22;800;48.824;9.346;2024-01-10T06:17:56;3.10;45.10
1614;DHT22;800;48.824;9.346;2024-01-10T06:20:21;3.20;45.10
1614;DHT22;800;48.824;9.346;2024-01-10T06:22:47;3.30;44.90
1614;DHT22;800;48.824;9.346;2024-01-10T06:25:13;3.30;45.00
1614;DHT22;800;48.824;9.346;2024-01-10T06:27:39;3.50;48.20
1614;DHT22;800;48.824;9.346;2024-01-10T06:30:05;3.90;50.50
1614;DHT22;800;48.824;9.346;2024-01-10T06:32:32;4.40;51.10
1614;DHT22;800;48.824;9.346;2024-01-10T06:34:58;4.70;49.80
1614;DHT22;800;48.824;9.346;2024-01-10T06:37:25;4.60;45.80
1614;DHT22;800;48.824;9.346;2024-01-10T06:39:51;4.60;43.90
1614;DHT22;800;48.824;9.346;2024-01-10T06:42:16;4.50;43.40
1614;DHT22;800;48.824;9.346;2024-01-10T06:44:42;4.50;43.40
1614;DHT22;800;48.824;9.346;2024-01-10T06:47:07;4.30;43.00
1614;DHT22;800;48.824;9.346;2024-01-10T06:49:33;3.80;43.30
1614;DHT22;800;48.824;9.346;2024-01-10T06:51:58;3.60;44.10
1614;DHT22;800;48.824;9.346;2024-01-10T06:54:26;3.50;44.30
1614;DHT22;800;48.824;9.346;2024-01-10T06:56:51;3.40;44.40
1614;DHT22;800;48.824;9.346;2024-01-10T06:59:17;3.30;44.50
1614;DHT22;800;48.824;9.346;2024-01-10T07:01:42;3.20;44.90
1614;DHT22;800;48.824;9.346;2024-01-10T07:04:08;3.20;45.50
1614;DHT22;800;48.824;9.346;2024-01-10T07:06:33;3.30;45.40
1614;DHT22;800;48.824;9.346;2024-01-10T07:08:59;3.30;45.20
1614;DHT22;800;48.824;9.346;2024-01-10T07:11:24;3.40;45.30
1614;DHT22;800;48.824;9.346;2024-01-10T07:13:52;3.40;45.30
1614;DHT22;800;48.824;9.346;2024-01-10T07:16:17;3.40;45.20
1614;DHT22;800;48.824;9.346;2024-01-10T07:18:43;3.50;45.10
1614;DHT22;800;48.824;9.346;2024-01-10T07:21:10;3.60;45.10
1614;DHT22;800;48.824;9.346;2024-01-10T07:23:36;3.60;45.00
1614;DHT22;800;48.824;9.346;2024-01-10T07:26:05;3.60;45.00
1614;DHT22;800;48.824;9.346;2024-01-10T07:28:31;3.50;45.10
1614;DHT22;800;48.824;9.346;2024-01-10T07:30:58;3.50;45.20
1614;DHT22;800;48.824;9.346;2024-01-10T07:33:23;3.50;45.30
1614;DHT22;800;48.824;9.346;2024-01-10T07:35:49;3.40;45.00
1614;DHT22;800;48.824;9.346;2024-01-10T07:38:14;3.50;45.20
1614;DHT22;800;48.824;9.346;2024-01-10T07:40:40;3.50;45.50
1614;DHT22;800;48.824;9.346;2024-01-10T07:43:05;3.60;45.00
1614;DHT22;800;48.824;9.346;2024-01-10T07:45:31;3.60;44.90
1614;DHT22;800;48.824;9.346;2024-01-10T07:47:56;3.70;44.80
1614;DHT22;800;48.824;9.346;2024-01-10T07:50:22;3.70;44.70
1614;DHT22;800;48.824;9.346;2024-01-10T07:52:52;3.70;44.80
1614;DHT22;800;48.824;9.346;2024-01-10T07:55:17;3.80;44.80
1614;DHT22;800;48.824;9.346;2024-01-10T07:57:43;3.80;44.80
1614;DHT22;800;48.824;9.346;2024-01-10T08:00:09;3.80;44.70
1614;DHT22;800;48.824;9.346;2024-01-10T08:02:36;3.70;44.70
1614;DHT22;800;48.824;9.346;2024-01-10T08:05:02;3.70;44.80
1614;DHT22;800;48.824;9.346;2024-01-10T08:07:31;3.50;44.90
1614;DHT22;800;48.824;9.346;2024-01-10T08:10:01;3.50;45.20
1614;DHT22;800;48.824;9.346;2024-01-10T08:12:26;3.50;45.50
1614;DHT22;800;48.824;9.346;2024-01-10T08:14:52;3.40;45.40
1614;DHT22;800;48.824;9.346;2024-01-10T08:17:17;3.40;45.80
1614;DHT22;800;48.824;9.346;2024-01-10T08:19:44;3.30;46.10
1614;DHT22;800;48.824;9.346;2024-01-10T08:22:09;3.40;46.90
1614;DHT22;800;48.824;9.346;2024-01-10T08:24:35;3.60;46.40
1614;DHT22;800;48.824;9.346;2024-01-10T08:27:00;3.70;46.40
1614;DHT22;800;48.824;9.346;2024-01-10T08:29:26;3.90;46.30
1614;DHT22;800;48.824;9.346;2024-01-10T08:31:57;3.90;46.10
1614;DHT22;800;48.824;9.346;2024-01-10T08:34:23;4.00;45.80
1614;DHT22;800;48.824;9.346;2024-01-10T08:36:49;4.10;45.80
1614;DHT22;800;48.824;9.346;2024-01-10T08:39:16;4.20;45.90
1614;DHT22;800;48.824;9.346;2024-01-10T08:41:42;4.20;45.70
1614;DHT22;800;48.824;9.346;2024-01-10T08:44:10;4.30;45.80
1614;DHT22;800;48.824;9.346;2024-01-10T08:46:35;4.40;46.00
1614;DHT22;800;48.824;9.346;2024-01-10T08:49:01;4.50;45.80
1614;DHT22;800;48.824;9.346;2024-01-10T08:51:27;4.50;45.80
1614;DHT22;800;48.824;9.346;2024-01-10T08:53:52;4.50;45.70
1614;DHT22;800;48.824;9.346;2024-01-10T08:56:18;4.50;45.70
1614;DHT22;800;48.824;9.346;2024-01-10T08:58:45;4.40;45.70
1614;DHT22;800;48.824;9.346;2024-01-10T09:01:10;4.20;44.60
1614;DHT22;800;48.824;9.346;2024-01-10T09:03:36;3.90;45.00
1614;DHT22;800;48.824;9.346;2024-01-10T09:06:03;3.80;45.80
1614;DHT22;800;48.824;9.346;2024-01-10T09:08:29;3.30;45.90
1614;DHT22;800;48.824;9.346;2024-01-10T09:10:55;3.50;46.50
1614;DHT22;800;48.824;9.346;2024-01-10T09:13:20;3.60;46.20
1614;DHT22;800;48.824;9.346;2024-01-10T09:15:46;3.60;46.30
1614;DHT22;800;48.824;9.346;2024-01-10T09:18:12;3.60;46.50
1614;DHT22;800;48.824;9.346;2024-01-10T09:20:37;3.90;45.80
1614;DHT22;800;48.824;9.346;2024-01-10T09:23:04;4.00;45.70
1614;DHT22;800;48.824;9.346;2024-01-10T09:25:29;3.80;45.20
1614;DHT22;800;48.824;9.346;2024-01-10T09:27:55;4.00;45.90
1614;DHT22;800;48.824;9.346;2024-01-10T09:30:21;4.20;45.20
1614;DHT22;800;48.824;9.346;2024-01-10T09:32:46;4.40;44.70
1614;DHT22;800;48.824;9.346;2024-01-10T09:35:12;4.60;44.10
1614;DHT22;800;48.824;9.346;2024-01-10T09:37:39;4.80;43.80
1614;DHT22;800;48.824;9.346;2024-01-10T09:40:05;5.00;43.50
1614;DHT22;800;48.824;9.346;2024-01-10T09:42:34;5.20;43.40
1614;DHT22;800;48.824;9.346;2024-01-10T09:45:03;5.40;42.80
1614;DHT22;800;48.824;9.346;2024-01-10T09:47:32;5.50;42.50
1614;DHT22;800;48.824;9.346;2024-01-10T09:49:58;5.70;42.10
1614;DHT22;800;48.824;9.346;2024-01-10T09:52:27;6.00;41.70
1614;DHT22;800;48.824;9.346;2024-01-10T09:54:55;6.00;40.90
1614;DHT22;800;48.824;9.346;2024-01-10T09:57:24;6.10;40.50
1614;DHT22;800;48.824;9.346;2024-01-10T09:59:51;6.20;40.50
1614;DHT22;800;48.824;9.346;2024-01-10T10:02:18;6.30;40.30
1614;DHT22;800;48.824;9.346;2024-01-10T10:04:54;6.50;39.50
1614;DHT22;800;48.824;9.346;2024-01-10T10:07:22;6.10;39.90
1614;DHT22;800;48.824;9.346;2024-01-10T10:09:47;6.40;40.20
1614;DHT22;800;48.824;9.346;2024-01-10T10:12:13;6.20;41.10
1614;DHT22;800;48.824;9.346;2024-01-10T10:14:38;6.40;40.80
1614;DHT22;800;48.824;9.346;2024-01-10T10:17:14;6.80;40.50
1614;DHT22;800;48.824;9.346;2024-01-10T10:19:40;7.20;39.70
1614;DHT22;800;48.824;9.346;2024-01-10T10:22:09;7.40;39.20
1614;DHT22;800;48.824;9.346;2024-01-10T10:24:35;7.40;38.50
1614;DHT22;800;48.824;9.346;2024-01-10T10:27:01;7.00;38.70
1614;DHT22;800;48.824;9.346;2024-01-10T10:29:27;7.20;39.00
1614;DHT22;800;48.824;9.346;2024-01-10T10:31:52;7.60;38.60
1614;DHT22;800;48.824;9.346;2024-01-10T10:34:21;7.40;38.10
1614;DHT22;800;48.824;9.346;2024-01-10T10:36:48;7.50;38.80
1614;DHT22;800;48.824;9.346;2024-01-10T10:39:16;7.80;38.40
1614;DHT22;800;48.824;9.346;2024-01-10T10:41:43;7.80;37.90
1614;DHT22;800;48.824;9.346;2024-01-10T10:44:09;7.50;38.00
1614;DHT22;800;48.824;9.346;2024-01-10T10:46:36;7.60;38.50
1614;DHT22;800;48.824;9.346;2024-01-10T10:49:08;7.70;38.50
1614;DHT22;800;48.824;9.346;2024-01-10T10:51:36;7.80;38.10
1614;DHT22;800;48.824;9.346;2024-01-10T10:54:03;7.90;37.80
1614;DHT22;800;48.824;9.346;2024-01-10T10:56:30;8.10;38.30
1614;DHT22;800;48.824;9.346;2024-01-10T10:58:57;8.30;37.70
1614;DHT22;800;48.824;9.346;2024-01-10T11:01:24;8.40;37.00
1614;DHT22;800;48.824;9.346;2024-01-10T11:03:52;8.50;37.00
1614;DHT22;800;48.824;9.346;2024-01-10T11:06:18;8.70;37.10
1614;DHT22;800;48.824;9.346;2024-01-10T11:08:59;8.60;36.70
1614;DHT22;800;48.824;9.346;2024-01-10T11:25:08;9.60;35.00
1614;DHT22;800;48.824;9.346;2024-01-10T11:27:36;9.80;34.70
1614;DHT22;800;48.824;9.346;2024-01-10T11:30:02;9.70;34.90
1614;DHT22;800;48.824;9.346;2024-01-10T11:32:30;9.50;35.00
1614;DHT22;800;48.824;9.346;2024-01-10T11:34:58;9.20;36.10
1614;DHT22;800;48.824;9.346;2024-01-10T11:37:44;9.20;36.10
1614;DHT22;800;48.824;9.346;2024-01-10T11:40:11;9.30;35.80
1614;DHT22;800;48.824;9.346;2024-01-10T11:42:44;9.20;36.10
1614;DHT22;800;48.824;9.346;2024-01-10T11:45:37;9.10;36.50
1614;DHT22;800;48.824;9.346;2024-01-10T11:48:02;8.50;36.70
1614;DHT22;800;48.824;9.346;2024-01-10T11:50:28;8.20;37.20
1614;DHT22;800;48.824;9.346;2024-01-10T11:52:56;8.10;37.90
1614;DHT22;800;48.824;9.346;2024-01-10T11:55:46;8.60;37.50
1614;DHT22;800;48.824;9.346;2024-01-10T11:58:12;8.60;37.20
1614;DHT22;800;48.824;9.346;2024-01-10T12:00:37;8.70;37.30
1614;DHT22;800;48.824;9.346;2024-01-10T12:03:04;8.80;37.00
1614;DHT22;800;48.824;9.346;2024-01-10T12:05:29;8.90;36.90
1614;DHT22;800;48.824;9.346;2024-01-10T12:07:55;9.00;36.90
1614;DHT22;800;48.824;9.346;2024-01-10T12:10:21;9.10;36.90
1614;DHT22;800;48.824;9.346;2024-01-10T12:12:46;9.40;36.50
1614;DHT22;800;48.824;9.346;2024-01-10T12:15:12;9.40;36.70
1614;DHT22;800;48.824;9.346;2024-01-10T12:17:37;9.20;36.40
1614;DHT22;800;48.824;9.346;2024-01-10T12:20:03;9.10;36.50
1614;DHT22;800;48.824;9.346;2024-01-10T12:22:31;9.10;36.70
1614;DHT22;800;48.824;9.346;2024-01-10T12:25:04;9.30;36.70
1614;DHT22;800;48.824;9.346;2024-01-10T12:27:29;9.40;36.40
1614;DHT22;800;48.824;9.346;2024-01-10T12:29:56;9.60;36.20
1614;DHT22;800;48.824;9.346;2024-01-10T12:32:22;9.60;35.70
1614;DHT22;800;48.824;9.346;2024-01-10T12:34:48;9.50;35.70
1614;DHT22;800;48.824;9.346;2024-01-10T12:37:13;9.60;36.10
1614;DHT22;800;48.824;9.346;2024-01-10T12:39:39;9.70;36.30
1614;DHT22;800;48.824;9.346;2024-01-10T12:42:05;9.70;36.30
1614;DHT22;800;48.824;9.346;2024-01-10T12:44:30;9.80;36.10
1614;DHT22;800;48.824;9.346;2024-01-10T12:46:56;9.90;36.10
1614;DHT22;800;48.824;9.346;2024-01-10T12:49:22;10.00;35.20
1614;DHT22;800;48.824;9.346;2024-01-10T12:51:48;9.40;35.80
1614;DHT22;800;48.824;9.346;2024-01-10T12:54:15;9.30;36.30
1614;DHT22;800;48.824;9.346;2024-01-10T12:56:41;9.40;36.10
1614;DHT22;800;48.824;9.346;2024-01-10T12:59:07;9.60;36.20
1614;DHT22;800;48.824;9.346;2024-01-10T13:01:35;9.80;35.90
1614;DHT22;800;48.824;9.346;2024-01-10T13:04:00;10.00;34.50
1614;DHT22;800;48.824;9.346;2024-01-10T13:06:26;10.10;34.40
1614;DHT22;800;48.824;9.346;2024-01-10T13:08:51;10.10;34.30
1614;DHT22;800;48.824;9.346;2024-01-10T13:11:17;10.10;34.60
1614;DHT22;800;48.824;9.346;2024-01-10T13:13:43;10.20;34.60
1614;DHT22;800;48.824;9.346;2024-01-10T13:16:08;10.30;34.40
1614;DHT22;800;48.824;9.346;2024-01-10T13:18:37;10.30;34.30
1614;DHT22;800;48.824;9.346;2024-01-10T13:21:03;10.40;34.30
1614;DHT22;800;48.824;9.346;2024-01-10T13:23:28;10.60;34.40
1614;DHT22;800;48.824;9.346;2024-01-10T13:25:54;10.70;34.20
1614;DHT22;800;48.824;9.346;2024-01-10T13:28:19;10.60;33.90
1614;DHT22;800;48.824;9.346;2024-01-10T13:30:45;10.60;33.90
1614;DHT22;800;48.824;9.346;2024-01-10T13:33:11;10.70;34.00
1614;DHT22;800;48.824;9.346;2024-01-10T13:35:37;10.80;33.90
1614;DHT22;800;48.824;9.346;2024-01-10T13:38:03;10.90;33.80
1614;DHT22;800;48.824;9.346;2024-01-10T13:40:28;10.90;33.80
1614;DHT22;800;48.824;9.346;2024-01-10T13:42:54;10.80;33.90
1614;DHT22;800;48.824;9.346;2024-01-10T13:45:20;10.90;33.90
1614;DHT22;800;48.824;9.346;2024-01-10T13:47:46;10.90;33.90
1614;DHT22;800;48.824;9.346;2024-01-10T13:50:12;10.70;33.60
1614;DHT22;800;48.824;9.346;2024-01-10T13:52:37;10.40;34.00
1614;DHT22;800;48.824;9.346;2024-01-10T13:55:03;10.30;34.80
1614;DHT22;800;48.824;9.346;2024-01-10T13:57:30;10.50;34.60
1614;DHT22;800;48.824;9.346;2024-01-10T13:59:56;10.60;34.50
1614;DHT22;800;48.824;9.346;2024-01-10T14:02:25;10.70;34.10
1614;DHT22;800;48.824;9.346;2024-01-10T14:04:51;10.40;34.30
1614;DHT22;800;48.824;9.346;2024-01-10T14:07:18;10.30;34.80
1614;DHT22;800;48.824;9.346;2024-01-10T14:09:44;10.40;34.80
1614;DHT22;800;48.824;9.346;2024-01-10T14:12:11;10.60;34.60
1614;DHT22;800;48.824;9.346;2024-01-10T14:14:36;10.70;34.60
1614;DHT22;800;48.824;9.346;2024-01-10T14:17:02;10.80;34.40
1614;DHT22;800;48.824;9.346;2024-01-10T14:19:29;10.80;34.20
1614;DHT22;800;48.824;9.346;2024-01-10T14:21:54;10.90;34.20
1614;DHT22;800;48.824;9.346;2024-01-10T14:24:20;11.10;34.20
1614;DHT22;800;48.824;9.346;2024-01-10T14:26:46;11.20;33.90
1614;DHT22;800;48.824;9.346;2024-01-10T14:29:12;11.20;33.90
1614;DHT22;800;48.824;9.346;2024-01-10T14:31:38;10.90;34.00
1614;DHT22;800;48.824;9.346;2024-01-10T14:34:05;11.10;34.10
1614;DHT22;800;48.824;9.346;2024-01-10T14:36:31;11.10;33.80
1614;DHT22;800;48.824;9.346;2024-01-10T14:38:56;11.20;34.10
1614;DHT22;800;48.824;9.346;2024-01-10T14:41:22;11.10;34.20
1614;DHT22;800;48.824;9.346;2024-01-10T14:43:48;11.10;34.20
1614;DHT22;800;48.824;9.346;2024-01-10T14:46:13;11.00;34.30
1614;DHT22;800;48.824;9.346;2024-01-10T14:48:39;11.00;34.30
1614;DHT22;800;48.824;9.346;2024-01-10T14:51:05;11.00;34.40
1614;DHT22;800;48.824;9.346;2024-01-10T14:53:30;11.10;34.50
1614;DHT22;800;48.824;9.346;2024-01-10T14:55:56;11.10;34.60
1614;DHT22;800;48.824;9.346;2024-01-10T14:58:22;11.10;34.70
1614;DHT22;800;48.824;9.346;2024-01-10T15:00:47;11.10;34.80
1614;DHT22;800;48.824;9.346;2024-01-10T15:03:13;11.00;34.70
1614;DHT22;800;48.824;9.346;2024-01-10T15:05:41;11.00;34.80
1614;DHT22;800;48.824;9.346;2024-01-10T15:08:07;11.00;34.70
1614;DHT22;800;48.824;9.346;2024-01-10T15:10:35;11.00;34.90
1614;DHT22;800;48.824;9.346;2024-01-10T15:13:01;10.90;34.80
1614;DHT22;800;48.824;9.346;2024-01-10T15:15:26;10.80;34.70
1614;DHT22;800;48.824;9.346;2024-01-10T15:17:52;10.80;35.20
1614;DHT22;800;48.824;9.346;2024-01-10T15:20:17;10.70;35.00
1614;DHT22;800;48.824;9.346;2024-01-10T15:22:43;10.60;35.10
1614;DHT22;800;48.824;9.346;2024-01-10T15:25:09;10.60;35.30
1614;DHT22;800;48.824;9.346;2024-01-10T15:27:34;10.50;35.20
1614;DHT22;800;48.824;9.346;2024-01-10T15:30:00;10.40;35.30
1614;DHT22;800;48.824;9.346;2024-01-10T15:32:26;10.30;35.20
1614;DHT22;800;48.824;9.346;2024-01-10T15:34:53;10.20;35.30
1614;DHT22;800;48.824;9.346;2024-01-10T15:37:19;10.10;35.50
1614;DHT22;800;48.824;9.346;2024-01-10T15:39:45;10.00;35.60
1614;DHT22;800;48.824;9.346;2024-01-10T15:42:11;9.90;36.80
1614;DHT22;800;48.824;9.346;2024-01-10T15:44:39;9.80;37.00
1614;DHT22;800;48.824;9.346;2024-01-10T15:47:05;9.70;37.20
1614;DHT22;800;48.824;9.346;2024-01-10T15:49:31;9.70;37.50
1614;DHT22;800;48.824;9.346;2024-01-10T15:51:57;9.60;37.50
1614;DHT22;800;48.824;9.346;2024-01-10T15:54:22;9.60;37.60
1614;DHT22;800;48.824;9.346;2024-01-10T15:56:48;9.50;37.70
1614;DHT22;800;48.824;9.346;2024-01-10T15:59:14;9.40;37.90
1614;DHT22;800;48.824;9.346;2024-01-10T16:01:40;9.30;38.00
1614;DHT22;800;48.824;9.346;2024-01-10T16:04:06;9.20;38.20
1614;DHT22;800;48.824;9.346;2024-01-10T16:06:32;9.10;38.20
1614;DHT22;800;48.824;9.346;2024-01-10T16:08:58;9.00;38.30
1614;DHT22;800;48.824;9.346;2024-01-10T16:11:23;9.00;38.50
1614;DHT22;800;48.824;9.346;2024-01-10T16:13:49;9.00;38.90
1614;DHT22;800;48.824;9.346;2024-01-10T16:16:15;8.90;39.10
1614;DHT22;800;48.824;9.346;2024-01-10T16:18:40;8.80;39.30
1614;DHT22;800;48.824;9.346;2024-01-10T16:21:07;8.80;39.40
1614;DHT22;800;48.824;9.346;2024-01-10T16:23:32;8.70;39.70
1614;DHT22;800;48.824;9.346;2024-01-10T16:25:58;8.60;39.70
1614;DHT22;800;48.824;9.346;2024-01-10T16:28:24;8.50;39.80
1614;DHT22;800;48.824;9.346;2024-01-10T16:30:50;8.40;40.00
1614;DHT22;800;48.824;9.346;2024-01-10T16:33:16;8.40;40.20
1614;DHT22;800;48.824;9.346;2024-01-10T16:35:43;8.30;40.30
1614;DHT22;800;48.824;9.346;2024-01-10T16:38:08;8.20;40.30
1614;DHT22;800;48.824;9.346;2024-01-10T16:40:34;8.20;40.60